sensor_id;sensor_type;location;lat;lon;timestamp;P1;durP1;ratioP1;P2;durP2;ratioP2
20609;SDS011;10463;52.378;9.688;2024-02-26T00:00:54;2.33;;;1.90;;
20609;SDS011;10463;52.378;9.688;2024-02-26T00:03:38;3.33;;;1.70;;
20609;SDS011;10463;52.378;9.688;2024-02-26T00:06:26;3.60;;;2.03;;
20609;SDS011;10463;52.378;9.688;2024-02-26T00:09:12;3.20;;;2.10;;
20609;SDS011;10463;52.378;9.688;2024-02-26T00:11:57;2.63;;;1.93;;
20609;SDS011;10463;52.378;9.688;2024-02-26T00:14:43;2.90;;;1.90;;
20609;SDS011;10463;52.378;9.688;2024-02-26T00:17:31;2.43;;;1.80;;
20609;SDS011;10463;52.378;9.688;2024-02-26T00:20:16;2.50;;;1.53;;
20609;SDS011;10463;52.378;9.688;2024-02-26T00:23:00;4.03;;;2.13;;
20609;SDS011;10463;52.378;9.688;2024-02-26T00:25:47;3.30;;;2.23;;
20609;SDS011;10463;52.378;9.688;2024-02-26T00:28:32;6.60;;;2.00;;
20609;SDS011;10463;52.378;9.688;2024-02-26T00:31:16;2.70;;;1.87;;
20609;SDS011;10463;52.378;9.688;2024-02-26T00:34:01;3.10;;;2.00;;
20609;SDS011;10463;52.378;9.688;2024-02-26T00:36:46;3.83;;;2.27;;
20609;SDS011;10463;52.378;9.688;2024-02-26T00:39:30;2.67;;;1.80;;
20609;SDS011;10463;52.378;9.688;2024-02-26T00:42:17;3.60;;;2.20;;
20609;SDS011;10463;52.378;9.688;2024-02-26T00:45:03;2.47;;;2.13;;
20609;SDS011;10463;52.378;9.688;2024-02-26T00:47:48;2.50;;;1.83;;
20609;SDS011;10463;52.378;9.688;2024-02-26T00:50:33;3.03;;;2.13;;
20609;SDS011;10463;52.378;9.688;2024-02-26T00:53:18;3.10;;;2.30;;
20609;SDS011;10463;52.378;9.688;2024-02-26T00:56:03;2.90;;;2.00;;
20609;SDS011;10463;52.378;9.688;2024-02-26T00:58:50;2.87;;;2.00;;
20609;SDS011;10463;52.378;9.688;2024-02-26T01:01:35;2.80;;;2.17;;
20609;SDS011;10463;52.378;9.688;2024-02-26T01:04:20;4.07;;;1.97;;
20609;SDS011;10463;52.378;9.688;2024-02-26T01:07:04;3.07;;;2.37;;
20609;SDS011;10463;52.378;9.688;2024-02-26T01:09:49;2.50;;;1.73;;
20609;SDS011;10463;52.378;9.688;2024-02-26T01:12:34;3.17;;;2.03;;
20609;SDS011;10463;52.378;9.688;2024-02-26T01:15:21;2.70;;;2.10;;
20609;SDS011;10463;52.378;9.688;2024-02-26T01:18:07;2.83;;;2.23;;
20609;SDS011;10463;52.378;9.688;2024-02-26T01:20:52;3.20;;;2.03;;
20609;SDS011;10463;52.378;9.688;2024-02-26T01:23:38;2.70;;;1.90;;
20609;SDS011;10463;52.378;9.688;2024-02-26T01:26:23;3.20;;;2.13;;
20609;SDS011;10463;52.378;9.688;2024-02-26T01:29:07;3.00;;;2.23;;
20609;SDS011;10463;52.378;9.688;2024-02-26T01:31:53;2.87;;;1.83;;
20609;SDS011;10463;52.378;9.688;2024-02-26T01:34:39;3.77;;;2.10;;
20609;SDS011;10463;52.378;9.688;2024-02-26T01:37:24;2.63;;;1.70;;
20609;SDS011;10463;52.378;9.688;2024-02-26T01:40:09;2.47;;;2.00;;
20609;SDS011;10463;52.378;9.688;2024-02-26T01:42:55;3.07;;;2.33;;
20609;SDS011;10463;52.378;9.688;2024-02-26T01:45:40;2.80;;;2.30;;
20609;SDS011;10463;52.378;9.688;2024-02-26T01:48:25;2.83;;;2.13;;
20609;SDS011;10463;52.378;9.688;2024-02-26T01:51:11;3.27;;;2.33;;
20609;SDS011;10463;52.378;9.688;2024-02-26T01:53:58;2.83;;;1.90;;
20609;SDS011;10463;52.378;9.688;2024-02-26T01:56:46;2.47;;;1.83;;
20609;SDS011;10463;52.378;9.688;2024-02-26T01:59:30;2.80;;;1.90;;
20609;SDS011;10463;52.378;9.688;2024-02-26T02:02:16;3.03;;;2.03;;
20609;SDS011;10463;52.378;9.688;2024-02-26T02:05:02;3.40;;;2.50;;
20609;SDS011;10463;52.378;9.688;2024-02-26T02:07:48;2.70;;;1.90;;
20609;SDS011;10463;52.378;9.688;2024-02-26T02:10:34;2.50;;;1.80;;
20609;SDS011;10463;52.378;9.688;2024-02-26T02:13:19;3.20;;;2.40;;
20609;SDS011;10463;52.378;9.688;2024-02-26T02:16:04;2.97;;;2.10;;
20609;SDS011;10463;52.378;9.688;2024-02-26T02:18:49;2.40;;;1.60;;
20609;SDS011;10463;52.378;9.688;2024-02-26T02:21:35;2.47;;;1.80;;
20609;SDS011;10463;52.378;9.688;2024-02-26T02:24:20;2.37;;;1.80;;
20609;SDS011;10463;52.378;9.688;2024-02-26T02:27:05;2.30;;;1.57;;
20609;SDS011;10463;52.378;9.688;2024-02-26T02:29:49;2.67;;;1.50;;
20609;SDS011;10463;52.378;9.688;2024-02-26T02:32:35;2.73;;;1.77;;
20609;SDS011;10463;52.378;9.688;2024-02-26T02:35:21;2.47;;;1.60;;
20609;SDS011;10463;52.378;9.688;2024-02-26T02:38:07;2.13;;;1.83;;
20609;SDS011;10463;52.378;9.688;2024-02-26T02:40:52;3.13;;;1.70;;
20609;SDS011;10463;52.378;9.688;2024-02-26T02:43:37;3.60;;;2.10;;
20609;SDS011;10463;52.378;9.688;2024-02-26T02:46:21;3.00;;;1.77;;
20609;SDS011;10463;52.378;9.688;2024-02-26T02:49:08;2.30;;;1.70;;
20609;SDS011;10463;52.378;9.688;2024-02-26T02:51:53;3.27;;;2.00;;
20609;SDS011;10463;52.378;9.688;2024-02-26T02:54:40;3.37;;;2.03;;
20609;SDS011;10463;52.378;9.688;2024-02-26T02:57:26;2.37;;;1.83;;
20609;SDS011;10463;52.378;9.688;2024-02-26T03:00:11;3.23;;;2.23;;
20609;SDS011;10463;52.378;9.688;2024-02-26T03:02:56;2.30;;;1.70;;
20609;SDS011;10463;52.378;9.688;2024-02-26T03:05:41;2.50;;;1.80;;
20609;SDS011;10463;52.378;9.688;2024-02-26T03:08:25;3.07;;;1.53;;
20609;SDS011;10463;52.378;9.688;2024-02-26T03:11:14;3.30;;;2.20;;
20609;SDS011;10463;52.378;9.688;2024-02-26T03:13:59;2.13;;;1.70;;
20609;SDS011;10463;52.378;9.688;2024-02-26T03:16:44;2.50;;;1.83;;
20609;SDS011;10463;52.378;9.688;2024-02-26T03:19:28;2.47;;;1.60;;
20609;SDS011;10463;52.378;9.688;2024-02-26T03:22:13;2.63;;;1.40;;
20609;SDS011;10463;52.378;9.688;2024-02-26T03:24:58;1.97;;;1.40;;
20609;SDS011;10463;52.378;9.688;2024-02-26T03:27:44;2.30;;;1.50;;
20609;SDS011;10463;52.378;9.688;2024-02-26T03:30:28;2.10;;;1.33;;
20609;SDS011;10463;52.378;9.688;2024-02-26T03:33:13;2.40;;;1.60;;
20609;SDS011;10463;52.378;9.688;2024-02-26T03:35:57;2.37;;;1.80;;
20609;SDS011;10463;52.378;9.688;2024-02-26T03:38:42;2.50;;;1.70;;
20609;SDS011;10463;52.378;9.688;2024-02-26T03:41:27;2.63;;;1.63;;
20609;SDS011;10463;52.378;9.688;2024-02-26T03:44:13;2.00;;;1.20;;
20609;SDS011;10463;52.378;9.688;2024-02-26T03:46:57;2.20;;;1.40;;
20609;SDS011;10463;52.378;9.688;2024-02-26T03:49:42;2.70;;;1.67;;
20609;SDS011;10463;52.378;9.688;2024-02-26T03:52:26;2.50;;;1.67;;
20609;SDS011;10463;52.378;9.688;2024-02-26T03:55:11;1.97;;;1.40;;
20609;SDS011;10463;52.378;9.688;2024-02-26T03:57:56;2.60;;;1.57;;
20609;SDS011;10463;52.378;9.688;2024-02-26T04:00:42;2.53;;;1.53;;
20609;SDS011;10463;52.378;9.688;2024-02-26T04:03:27;1.97;;;1.30;;
20609;SDS011;10463;52.378;9.688;2024-02-26T04:06:11;2.03;;;1.40;;
20609;SDS011;10463;52.378;9.688;2024-02-26T04:08:58;2.00;;;1.40;;
20609;SDS011;10463;52.378;9.688;2024-02-26T04:11:43;2.97;;;1.63;;
20609;SDS011;10463;52.378;9.688;2024-02-26T04:14:27;2.23;;;1.37;;
20609;SDS011;10463;52.378;9.688;2024-02-26T04:17:13;2.47;;;1.50;;
20609;SDS011;10463;52.378;9.688;2024-02-26T04:19:58;2.50;;;1.60;;
20609;SDS011;10463;52.378;9.688;2024-02-26T04:22:43;2.50;;;1.57;;
20609;SDS011;10463;52.378;9.688;2024-02-26T04:25:28;1.90;;;1.20;;
20609;SDS011;10463;52.378;9.688;2024-02-26T04:28:12;2.07;;;1.30;;
20609;SDS011;10463;52.378;9.688;2024-02-26T04:30:57;2.53;;;1.43;;
20609;SDS011;10463;52.378;9.688;2024-02-26T04:33:43;1.77;;;1.10;;
20609;SDS011;10463;52.378;9.688;2024-02-26T04:36:27;2.30;;;1.50;;
20609;SDS011;10463;52.378;9.688;2024-02-26T04:39:12;2.57;;;1.50;;
20609;SDS011;10463;52.378;9.688;2024-02-26T04:41:57;2.27;;;1.47;;
20609;SDS011;10463;52.378;9.688;2024-02-26T04:44:41;1.90;;;1.30;;
20609;SDS011;10463;52.378;9.688;2024-02-26T04:47:26;2.67;;;1.63;;
20609;SDS011;10463;52.378;9.688;2024-02-26T04:50:11;1.60;;;1.10;;
20609;SDS011;10463;52.378;9.688;2024-02-26T04:52:56;2.20;;;1.50;;
20609;SDS011;10463;52.378;9.688;2024-02-26T04:55:41;2.60;;;1.40;;
20609;SDS011;10463;52.378;9.688;2024-02-26T04:58:25;2.13;;;1.33;;
20609;SDS011;10463;52.378;9.688;2024-02-26T05:01:10;2.23;;;1.20;;
20609;SDS011;10463;52.378;9.688;2024-02-26T05:03:54;1.80;;;1.07;;
20609;SDS011;10463;52.378;9.688;2024-02-26T05:06:41;1.77;;;1.10;;
20609;SDS011;10463;52.378;9.688;2024-02-26T05:09:25;1.87;;;1.30;;
20609;SDS011;10463;52.378;9.688;2024-02-26T05:12:10;2.80;;;1.50;;
20609;SDS011;10463;52.378;9.688;2024-02-26T05:14:54;1.90;;;1.40;;
20609;SDS011;10463;52.378;9.688;2024-02-26T05:17:39;1.87;;;1.30;;
20609;SDS011;10463;52.378;9.688;2024-02-26T05:20:24;2.20;;;1.37;;
20609;SDS011;10463;52.378;9.688;2024-02-26T05:23:10;1.77;;;1.27;;
20609;SDS011;10463;52.378;9.688;2024-02-26T05:25:54;2.10;;;1.27;;
20609;SDS011;10463;52.378;9.688;2024-02-26T05:28:39;1.97;;;1.40;;
20609;SDS011;10463;52.378;9.688;2024-02-26T05:31:24;2.03;;;1.30;;
20609;SDS011;10463;52.378;9.688;2024-02-26T05:34:08;1.93;;;1.20;;
20609;SDS011;10463;52.378;9.688;2024-02-26T05:36:53;1.70;;;1.03;;
20609;SDS011;10463;52.378;9.688;2024-02-26T05:39:38;1.50;;;0.93;;
20609;SDS011;10463;52.378;9.688;2024-02-26T05:42:23;1.90;;;1.10;;
20609;SDS011;10463;52.378;9.688;2024-02-26T05:45:08;2.13;;;1.27;;
20609;SDS011;10463;52.378;9.688;2024-02-26T05:47:53;1.43;;;0.97;;
20609;SDS011;10463;52.378;9.688;2024-02-26T05:50:38;2.10;;;1.20;;
20609;SDS011;10463;52.378;9.688;2024-02-26T05:53:22;1.80;;;1.10;;
20609;SDS011;10463;52.378;9.688;2024-02-26T05:56:08;1.80;;;1.30;;
20609;SDS011;10463;52.378;9.688;2024-02-26T05:58:53;1.93;;;1.17;;
20609;SDS011;10463;52.378;9.688;2024-02-26T06:01:38;1.77;;;1.20;;
20609;SDS011;10463;52.378;9.688;2024-02-26T06:04:22;1.90;;;1.10;;
20609;SDS011;10463;52.378;9.688;2024-02-26T06:07:07;2.37;;;1.40;;
20609;SDS011;10463;52.378;9.688;2024-02-26T06:09:51;2.50;;;1.40;;
20609;SDS011;10463;52.378;9.688;2024-02-26T06:12:37;2.13;;;1.40;;
20609;SDS011;10463;52.378;9.688;2024-02-26T06:15:22;2.70;;;1.63;;
20609;SDS011;10463;52.378;9.688;2024-02-26T06:18:07;2.20;;;1.80;;
20609;SDS011;10463;52.378;9.688;2024-02-26T06:20:52;3.07;;;2.30;;
20609;SDS011;10463;52.378;9.688;2024-02-26T06:23:36;2.60;;;1.60;;
20609;SDS011;10463;52.378;9.688;2024-02-26T06:26:21;2.70;;;1.80;;
20609;SDS011;10463;52.378;9.688;2024-02-26T06:29:07;3.60;;;2.50;;
20609;SDS011;10463;52.378;9.688;2024-02-26T06:31:52;2.80;;;2.10;;
20609;SDS011;10463;52.378;9.688;2024-02-26T06:34:36;2.50;;;1.77;;
20609;SDS011;10463;52.378;9.688;2024-02-26T06:37:22;3.73;;;2.60;;
20609;SDS011;10463;52.378;9.688;2024-02-26T06:40:07;4.13;;;2.60;;
20609;SDS011;10463;52.378;9.688;2024-02-26T06:42:53;2.80;;;1.73;;
20609;SDS011;10463;52.378;9.688;2024-02-26T06:45:39;2.53;;;1.87;;
20609;SDS011;10463;52.378;9.688;2024-02-26T06:48:23;3.20;;;2.30;;
20609;SDS011;10463;52.378;9.688;2024-02-26T06:51:08;3.37;;;2.20;;
20609;SDS011;10463;52.378;9.688;2024-02-26T06:53:53;2.97;;;2.60;;
20609;SDS011;10463;52.378;9.688;2024-02-26T06:56:37;3.67;;;2.87;;
20609;SDS011;10463;52.378;9.688;2024-02-26T06:59:22;3.70;;;2.60;;
20609;SDS011;10463;52.378;9.688;2024-02-26T07:02:09;3.70;;;3.23;;
20609;SDS011;10463;52.378;9.688;2024-02-26T07:04:53;4.10;;;2.83;;
20609;SDS011;10463;52.378;9.688;2024-02-26T07:07:40;4.63;;;3.80;;
20609;SDS011;10463;52.378;9.688;2024-02-26T07:10:24;4.20;;;3.33;;
20609;SDS011;10463;52.378;9.688;2024-02-26T07:13:09;4.57;;;3.60;;
20609;SDS011;10463;52.378;9.688;2024-02-26T07:15:53;4.27;;;3.83;;
20609;SDS011;10463;52.378;9.688;2024-02-26T07:18:40;5.40;;;3.93;;
20609;SDS011;10463;52.378;9.688;2024-02-26T07:21:24;5.23;;;4.27;;
20609;SDS011;10463;52.378;9.688;2024-02-26T07:24:09;5.10;;;4.30;;
20609;SDS011;10463;52.378;9.688;2024-02-26T07:26:53;5.67;;;4.10;;
20609;SDS011;10463;52.378;9.688;2024-02-26T07:29:41;6.83;;;5.13;;
20609;SDS011;10463;52.378;9.688;2024-02-26T07:32:26;5.43;;;4.53;;
20609;SDS011;10463;52.378;9.688;2024-02-26T07:35:11;6.80;;;5.50;;
20609;SDS011;10463;52.378;9.688;2024-02-26T07:37:56;7.70;;;5.33;;
20609;SDS011;10463;52.378;9.688;2024-02-26T07:40:40;7.40;;;6.00;;
20609;SDS011;10463;52.378;9.688;2024-02-26T07:43:25;7.30;;;5.27;;
20609;SDS011;10463;52.378;9.688;2024-02-26T07:46:11;8.47;;;6.60;;
20609;SDS011;10463;52.378;9.688;2024-02-26T07:48:56;8.23;;;6.37;;
20609;SDS011;10463;52.378;9.688;2024-02-26T07:51:42;6.77;;;6.07;;
20609;SDS011;10463;52.378;9.688;2024-02-26T07:54:26;8.97;;;8.07;;
20609;SDS011;10463;52.378;9.688;2024-02-26T07:57:11;8.67;;;6.70;;
20609;SDS011;10463;52.378;9.688;2024-02-26T07:59:56;8.47;;;6.90;;
20609;SDS011;10463;52.378;9.688;2024-02-26T08:02:40;10.50;;;7.50;;
20609;SDS011;10463;52.378;9.688;2024-02-26T08:05:25;9.83;;;8.10;;
20609;SDS011;10463;52.378;9.688;2024-02-26T08:08:12;11.67;;;8.20;;
20609;SDS011;10463;52.378;9.688;2024-02-26T08:10:56;9.37;;;8.40;;
20609;SDS011;10463;52.378;9.688;2024-02-26T08:13:41;9.33;;;8.37;;
20609;SDS011;10463;52.378;9.688;2024-02-26T08:16:26;9.80;;;8.80;;
20609;SDS011;10463;52.378;9.688;2024-02-26T08:19:11;13.00;;;9.30;;
20609;SDS011;10463;52.378;9.688;2024-02-26T08:21:58;10.07;;;8.03;;
20609;SDS011;10463;52.378;9.688;2024-02-26T08:24:44;9.83;;;8.73;;
20609;SDS011;10463;52.378;9.688;2024-02-26T08:27:29;12.23;;;10.00;;
20609;SDS011;10463;52.378;9.688;2024-02-26T08:30:14;11.10;;;9.30;;
20609;SDS011;10463;52.378;9.688;2024-02-26T08:33:00;11.17;;;9.43;;
20609;SDS011;10463;52.378;9.688;2024-02-26T08:35:45;11.93;;;10.57;;
20609;SDS011;10463;52.378;9.688;2024-02-26T08:38:30;12.97;;;10.10;;
20609;SDS011;10463;52.378;9.688;2024-02-26T08:41:16;10.97;;;9.50;;
20609;SDS011;10463;52.378;9.688;2024-02-26T08:44:00;12.70;;;10.17;;
20609;SDS011;10463;52.378;9.688;2024-02-26T08:46:45;12.10;;;10.10;;
20609;SDS011;10463;52.378;9.688;2024-02-26T08:49:30;12.30;;;10.33;;
20609;SDS011;10463;52.378;9.688;2024-02-26T08:52:15;12.83;;;10.57;;
20609;SDS011;10463;52.378;9.688;2024-02-26T08:55:00;11.90;;;10.13;;
20609;SDS011;10463;52.378;9.688;2024-02-26T08:57:46;13.03;;;10.27;;
20609;SDS011;10463;52.378;9.688;2024-02-26T09:00:32;12.23;;;9.57;;
20609;SDS011;10463;52.378;9.688;2024-02-26T09:03:17;13.00;;;10.10;;
20609;SDS011;10463;52.378;9.688;2024-02-26T09:06:01;15.13;;;12.93;;
20609;SDS011;10463;52.378;9.688;2024-02-26T09:08:46;14.27;;;11.73;;
20609;SDS011;10463;52.378;9.688;2024-02-26T09:11:30;13.67;;;11.47;;
20609;SDS011;10463;52.378;9.688;2024-02-26T09:14:17;12.87;;;11.20;;
20609;SDS011;10463;52.378;9.688;2024-02-26T09:17:01;14.30;;;11.63;;
20609;SDS011;10463;52.378;9.688;2024-02-26T09:19:46;14.43;;;11.80;;
20609;SDS011;10463;52.378;9.688;2024-02-26T09:22:31;13.63;;;11.77;;
20609;SDS011;10463;52.378;9.688;2024-02-26T09:25:16;13.30;;;11.63;;
20609;SDS011;10463;52.378;9.688;2024-02-26T09:28:01;12.33;;;10.97;;
20609;SDS011;10463;52.378;9.688;2024-02-26T09:30:47;13.50;;;11.33;;
20609;SDS011;10463;52.378;9.688;2024-02-26T09:33:33;13.37;;;11.33;;
20609;SDS011;10463;52.378;9.688;2024-02-26T09:36:17;12.67;;;10.50;;
20609;SDS011;10463;52.378;9.688;2024-02-26T09:39:02;11.70;;;10.13;;
20609;SDS011;10463;52.378;9.688;2024-02-26T09:41:47;11.40;;;10.20;;
20609;SDS011;10463;52.378;9.688;2024-02-26T09:44:33;12.13;;;10.10;;
20609;SDS011;10463;52.378;9.688;2024-02-26T09:47:23;10.47;;;9.30;;
20609;SDS011;10463;52.378;9.688;2024-02-26T09:50:12;11.67;;;9.73;;
20609;SDS011;10463;52.378;9.688;2024-02-26T09:52:58;11.07;;;8.40;;
20609;SDS011;10463;52.378;9.688;2024-02-26T09:55:46;10.40;;;8.90;;
20609;SDS011;10463;52.378;9.688;2024-02-26T09:58:31;9.63;;;8.23;;
20609;SDS011;10463;52.378;9.688;2024-02-26T10:01:18;11.37;;;9.50;;
20609;SDS011;10463;52.378;9.688;2024-02-26T10:04:05;8.80;;;7.90;;
20609;SDS011;10463;52.378;9.688;2024-02-26T10:06:52;9.40;;;7.93;;
20609;SDS011;10463;52.378;9.688;2024-02-26T10:09:38;10.10;;;7.50;;
20609;SDS011;10463;52.378;9.688;2024-02-26T10:12:23;8.93;;;7.60;;
20609;SDS011;10463;52.378;9.688;2024-02-26T10:15:10;8.03;;;7.20;;
20609;SDS011;10463;52.378;9.688;2024-02-26T10:17:55;9.37;;;7.47;;
20609;SDS011;10463;52.378;9.688;2024-02-26T10:20:41;7.57;;;6.33;;
20609;SDS011;10463;52.378;9.688;2024-02-26T10:23:26;7.10;;;6.30;;
20609;SDS011;10463;52.378;9.688;2024-02-26T10:26:11;7.57;;;6.70;;
20609;SDS011;10463;52.378;9.688;2024-02-26T10:28:59;6.83;;;6.13;;
20609;SDS011;10463;52.378;9.688;2024-02-26T10:31:45;8.67;;;6.00;;
20609;SDS011;10463;52.378;9.688;2024-02-26T10:34:30;7.13;;;6.43;;
20609;SDS011;10463;52.378;9.688;2024-02-26T10:37:16;7.00;;;6.23;;
20609;SDS011;10463;52.378;9.688;2024-02-26T10:40:02;6.97;;;5.80;;
20609;SDS011;10463;52.378;9.688;2024-02-26T10:42:47;6.77;;;5.73;;
20609;SDS011;10463;52.378;9.688;2024-02-26T10:45:31;6.73;;;5.93;;
20609;SDS011;10463;52.378;9.688;2024-02-26T10:48:16;6.80;;;6.00;;
20609;SDS011;10463;52.378;9.688;2024-02-26T10:51:02;6.53;;;5.70;;
20609;SDS011;10463;52.378;9.688;2024-02-26T10:53:49;6.30;;;5.30;;
20609;SDS011;10463;52.378;9.688;2024-02-26T10:56:41;7.37;;;5.27;;
20609;SDS011;10463;52.378;9.688;2024-02-26T10:59:27;6.13;;;5.07;;
20609;SDS011;10463;52.378;9.688;2024-02-26T11:02:13;6.60;;;5.90;;
20609;SDS011;10463;52.378;9.688;2024-02-26T11:04:58;5.80;;;4.80;;
20609;SDS011;10463;52.378;9.688;2024-02-26T11:07:45;6.70;;;5.20;;
20609;SDS011;10463;52.378;9.688;2024-02-26T11:10:33;6.00;;;5.20;;
20609;SDS011;10463;52.378;9.688;2024-02-26T11:13:18;7.43;;;6.23;;
20609;SDS011;10463;52.378;9.688;2024-02-26T11:16:03;5.37;;;4.53;;
20609;SDS011;10463;52.378;9.688;2024-02-26T11:18:49;5.60;;;5.10;;
20609;SDS011;10463;52.378;9.688;2024-02-26T11:21:39;5.63;;;4.80;;
20609;SDS011;10463;52.378;9.688;2024-02-26T11:24:27;5.87;;;4.87;;
20609;SDS011;10463;52.378;9.688;2024-02-26T11:27:13;6.37;;;5.00;;
20609;SDS011;10463;52.378;9.688;2024-02-26T11:30:02;5.27;;;4.60;;
20609;SDS011;10463;52.378;9.688;2024-02-26T11:32:49;5.63;;;5.03;;
20609;SDS011;10463;52.378;9.688;2024-02-26T11:35:36;4.90;;;4.20;;
20609;SDS011;10463;52.378;9.688;2024-02-26T11:38:23;5.23;;;4.73;;
20609;SDS011;10463;52.378;9.688;2024-02-26T11:41:09;5.27;;;4.50;;
20609;SDS011;10463;52.378;9.688;2024-02-26T11:43:59;6.10;;;4.97;;
20609;SDS011;10463;52.378;9.688;2024-02-26T11:46:45;4.77;;;4.37;;
20609;SDS011;10463;52.378;9.688;2024-02-26T11:49:32;5.67;;;4.60;;
20609;SDS011;10463;52.378;9.688;2024-02-26T11:52:17;5.10;;;4.60;;
20609;SDS011;10463;52.378;9.688;2024-02-26T11:55:01;5.80;;;5.17;;
20609;SDS011;10463;52.378;9.688;2024-02-26T11:57:46;6.00;;;4.87;;
20609;SDS011;10463;52.378;9.688;2024-02-26T12:00:32;5.07;;;4.63;;
20609;SDS011;10463;52.378;9.688;2024-02-26T12:03:18;6.17;;;4.80;;
20609;SDS011;10463;52.378;9.688;2024-02-26T12:06:04;5.67;;;5.00;;
20609;SDS011;10463;52.378;9.688;2024-02-26T12:08:49;5.07;;;4.27;;
20609;SDS011;10463;52.378;9.688;2024-02-26T12:11:34;6.20;;;5.03;;
20609;SDS011;10463;52.378;9.688;2024-02-26T12:14:25;5.07;;;4.40;;
20609;SDS011;10463;52.378;9.688;2024-02-26T12:17:20;7.33;;;5.20;;
20609;SDS011;10463;52.378;9.688;2024-02-26T12:20:08;5.57;;;4.93;;
20609;SDS011;10463;52.378;9.688;2024-02-26T12:22:54;5.90;;;5.23;;
20609;SDS011;10463;52.378;9.688;2024-02-26T12:25:40;5.90;;;5.30;;
20609;SDS011;10463;52.378;9.688;2024-02-26T12:28:27;7.80;;;5.80;;
20609;SDS011;10463;52.378;9.688;2024-02-26T12:31:12;7.40;;;6.70;;
20609;SDS011;10463;52.378;9.688;2024-02-26T12:34:00;6.80;;;5.80;;
20609;SDS011;10463;52.378;9.688;2024-02-26T12:36:45;7.00;;;6.23;;
20609;SDS011;10463;52.378;9.688;2024-02-26T12:39:30;7.33;;;6.47;;
20609;SDS011;10463;52.378;9.688;2024-02-26T12:42:15;7.17;;;6.43;;
20609;SDS011;10463;52.378;9.688;2024-02-26T12:45:00;6.07;;;5.40;;
20609;SDS011;10463;52.378;9.688;2024-02-26T12:47:45;6.93;;;6.23;;
20609;SDS011;10463;52.378;9.688;2024-02-26T12:50:31;6.37;;;5.27;;
20609;SDS011;10463;52.378;9.688;2024-02-26T12:53:16;6.43;;;5.70;;
20609;SDS011;10463;52.378;9.688;2024-02-26T12:56:01;7.00;;;5.60;;
20609;SDS011;10463;52.378;9.688;2024-02-26T12:58:47;6.50;;;5.60;;
20609;SDS011;10463;52.378;9.688;2024-02-26T13:01:33;7.67;;;6.27;;
20609;SDS011;10463;52.378;9.688;2024-02-26T13:04:18;8.10;;;6.23;;
20609;SDS011;10463;52.378;9.688;2024-02-26T13:07:05;7.13;;;6.43;;
20609;SDS011;10463;52.378;9.688;2024-02-26T13:09:50;6.43;;;5.83;;
20609;SDS011;10463;52.378;9.688;2024-02-26T13:12:35;6.47;;;5.80;;
20609;SDS011;10463;52.378;9.688;2024-02-26T13:15:21;7.50;;;6.70;;
20609;SDS011;10463;52.378;9.688;2024-02-26T13:18:09;6.50;;;5.90;;
20609;SDS011;10463;52.378;9.688;2024-02-26T13:20:54;9.10;;;7.13;;
20609;SDS011;10463;52.378;9.688;2024-02-26T13:23:40;6.20;;;5.60;;
20609;SDS011;10463;52.378;9.688;2024-02-26T13:26:26;6.70;;;6.10;;
20609;SDS011;10463;52.378;9.688;2024-02-26T13:29:16;7.20;;;6.50;;
20609;SDS011;10463;52.378;9.688;2024-02-26T13:32:01;8.07;;;7.27;;
20609;SDS011;10463;52.378;9.688;2024-02-26T13:34:48;7.00;;;6.30;;
20609;SDS011;10463;52.378;9.688;2024-02-26T13:37:32;7.60;;;6.13;;
20609;SDS011;10463;52.378;9.688;2024-02-26T13:40:18;6.20;;;5.60;;
20609;SDS011;10463;52.378;9.688;2024-02-26T13:43:05;10.00;;;6.40;;
20609;SDS011;10463;52.378;9.688;2024-02-26T13:45:50;7.80;;;6.73;;
20609;SDS011;10463;52.378;9.688;2024-02-26T13:48:34;7.70;;;6.90;;
20609;SDS011;10463;52.378;9.688;2024-02-26T13:51:19;9.03;;;7.40;;
20609;SDS011;10463;52.378;9.688;2024-02-26T13:54:03;8.53;;;7.63;;
20609;SDS011;10463;52.378;9.688;2024-02-26T13:56:50;9.87;;;8.00;;
20609;SDS011;10463;52.378;9.688;2024-02-26T13:59:35;10.67;;;8.13;;
20609;SDS011;10463;52.378;9.688;2024-02-26T14:02:21;9.67;;;8.10;;
20609;SDS011;10463;52.378;9.688;2024-02-26T14:05:06;8.93;;;7.43;;
20609;SDS011;10463;52.378;9.688;2024-02-26T14:07:52;9.10;;;7.80;;
20609;SDS011;10463;52.378;9.688;2024-02-26T14:10:37;10.37;;;8.13;;
20609;SDS011;10463;52.378;9.688;2024-02-26T14:13:23;10.17;;;7.63;;
20609;SDS011;10463;52.378;9.688;2024-02-26T14:16:08;9.50;;;8.50;;
20609;SDS011;10463;52.378;9.688;2024-02-26T14:18:54;10.37;;;9.20;;
20609;SDS011;10463;52.378;9.688;2024-02-26T14:21:39;10.27;;;8.97;;
20609;SDS011;10463;52.378;9.688;2024-02-26T14:24:23;9.60;;;8.27;;
20609;SDS011;10463;52.378;9.688;2024-02-26T14:27:09;9.13;;;8.17;;
20609;SDS011;10463;52.378;9.688;2024-02-26T14:29:59;9.43;;;8.33;;
20609;SDS011;10463;52.378;9.688;2024-02-26T14:32:44;8.13;;;7.33;;
20609;SDS011;10463;52.378;9.688;2024-02-26T14:35:29;8.53;;;7.63;;
20609;SDS011;10463;52.378;9.688;2024-02-26T14:38:14;10.43;;;7.67;;
20609;SDS011;10463;52.378;9.688;2024-02-26T14:40:59;9.40;;;7.47;;
20609;SDS011;10463;52.378;9.688;2024-02-26T14:43:44;12.00;;;7.07;;
20609;SDS011;10463;52.378;9.688;2024-02-26T14:46:29;8.47;;;6.43;;
20609;SDS011;10463;52.378;9.688;2024-02-26T14:49:14;8.00;;;6.83;;
20609;SDS011;10463;52.378;9.688;2024-02-26T14:51:59;8.87;;;6.90;;
20609;SDS011;10463;52.378;9.688;2024-02-26T14:54:44;8.70;;;6.20;;
20609;SDS011;10463;52.378;9.688;2024-02-26T14:57:28;10.80;;;6.80;;
20609;SDS011;10463;52.378;9.688;2024-02-26T15:00:13;7.37;;;6.40;;
20609;SDS011;10463;52.378;9.688;2024-02-26T15:03:00;7.20;;;5.90;;
20609;SDS011;10463;52.378;9.688;2024-02-26T15:05:45;8.37;;;4.97;;
20609;SDS011;10463;52.378;9.688;2024-02-26T15:08:29;8.60;;;6.53;;
20609;SDS011;10463;52.378;9.688;2024-02-26T15:11:14;7.10;;;5.93;;
20609;SDS011;10463;52.378;9.688;2024-02-26T15:13:59;5.60;;;4.97;;
20609;SDS011;10463;52.378;9.688;2024-02-26T15:16:44;5.43;;;4.83;;
20609;SDS011;10463;52.378;9.688;2024-02-26T15:19:29;6.60;;;5.27;;
20609;SDS011;10463;52.378;9.688;2024-02-26T15:22:14;5.30;;;4.73;;
20609;SDS011;10463;52.378;9.688;2024-02-26T15:24:59;6.00;;;4.40;;
20609;SDS011;10463;52.378;9.688;2024-02-26T15:27:43;5.70;;;4.47;;
20609;SDS011;10463;52.378;9.688;2024-02-26T15:30:27;5.00;;;4.17;;
20609;SDS011;10463;52.378;9.688;2024-02-26T15:33:13;5.90;;;4.33;;
20609;SDS011;10463;52.378;9.688;2024-02-26T15:35:59;5.43;;;4.40;;
20609;SDS011;10463;52.378;9.688;2024-02-26T15:38:44;4.80;;;3.70;;
20609;SDS011;10463;52.378;9.688;2024-02-26T15:41:28;4.07;;;3.67;;
20609;SDS011;10463;52.378;9.688;2024-02-26T15:44:13;4.83;;;4.10;;
20609;SDS011;10463;52.378;9.688;2024-02-26T15:46:58;4.53;;;3.60;;
20609;SDS011;10463;52.378;9.688;2024-02-26T15:49:43;5.23;;;4.00;;
20609;SDS011;10463;52.378;9.688;2024-02-26T15:52:29;5.47;;;4.57;;
20609;SDS011;10463;52.378;9.688;2024-02-26T15:55:14;5.10;;;4.30;;
20609;SDS011;10463;52.378;9.688;2024-02-26T15:57:59;5.23;;;4.57;;
20609;SDS011;10463;52.378;9.688;2024-02-26T16:00:44;5.57;;;4.70;;
20609;SDS011;10463;52.378;9.688;2024-02-26T16:03:28;5.83;;;4.60;;
20609;SDS011;10463;52.378;9.688;2024-02-26T16:06:28;5.20;;;4.53;;
20609;SDS011;10463;52.378;9.688;2024-02-26T16:09:17;4.40;;;4.00;;
20609;SDS011;10463;52.378;9.688;2024-02-26T16:12:03;4.10;;;3.30;;
20609;SDS011;10463;52.378;9.688;2024-02-26T16:14:56;4.23;;;3.60;;
20609;SDS011;10463;52.378;9.688;2024-02-26T16:17:43;4.70;;;4.20;;
20609;SDS011;10463;52.378;9.688;2024-02-26T16:20:31;3.60;;;3.30;;
20609;SDS011;10463;52.378;9.688;2024-02-26T16:23:17;4.53;;;3.70;;
20609;SDS011;10463;52.378;9.688;2024-02-26T16:26:03;4.37;;;3.50;;
20609;SDS011;10463;52.378;9.688;2024-02-26T16:28:48;4.57;;;3.13;;
20609;SDS011;10463;52.378;9.688;2024-02-26T16:31:33;6.07;;;4.10;;
20609;SDS011;10463;52.378;9.688;2024-02-26T16:34:18;4.63;;;3.60;;